createdAt,value
2017-11-29T00:02:34.859Z,76.57
2017-11-29T00:17:36.332Z,76.59
2017-11-29T00:32:34.703Z,76.62
2017-11-29T00:47:35.182Z,76.54
2017-11-29T01:02:34.650Z,75.92
2017-11-29T01:17:35.143Z,75.42
2017-11-29T01:32:35.093Z,75.24
2017-11-29T01:47:34.399Z,74.35
2017-11-29T02:02:37.302Z,73.87
2017-11-29T02:17:36.738Z,73.23
2017-11-29T02:32:35.286Z,72.81
2017-11-29T02:47:34.657Z,72.26
2017-11-29T03:02:34.606Z,72.36
2017-11-29T03:17:34.526Z,72.65
2017-11-29T03:32:34.424Z,73.35
2017-11-29T03:47:34.757Z,72.63
2017-11-29T04:02:35.702Z,72.57
2017-11-29T04:17:34.717Z,72.16
2017-11-29T04:32:34.603Z,72.96
2017-11-29T04:47:35.014Z,73.24
2017-11-29T05:02:35.004Z,73.87
2017-11-29T05:17:37.489Z,73.61
2017-11-29T05:32:34.800Z,73.89
2017-11-29T05:47:35.269Z,73.67
2017-11-29T06:02:36.678Z,73.29
2017-11-29T06:17:35.039Z,69.08
2017-11-29T06:32:35.063Z,62.40
2017-11-29T06:47:34.491Z,58.56
2017-11-29T07:02:36.449Z,54.30
2017-11-29T08:17:34.508Z,48.52
2017-11-29T08:32:34.583Z,47.68
2017-11-29T08:47:34.977Z,48.26
2017-11-29T09:02:34.827Z,48.26
2017-11-29T09:32:35.701Z,51.32
2017-11-29T10:32:34.883Z,52.36
2017-11-29T10:47:38.295Z,51.50
2017-11-29T11:02:35.240Z,51.61
2017-11-29T11:47:36.472Z,57.44
2017-11-29T12:02:37.430Z,56.91
2017-11-29T12:32:35.259Z,59.59
2017-11-29T12:47:40.238Z,58.54
2017-11-29T13:02:35.632Z,57.72
2017-11-29T13:17:36.661Z,58.10
2017-11-29T13:32:36.499Z,58.29
2017-11-29T13:47:34.969Z,59.32
2017-11-29T14:02:36.867Z,61.39
2017-11-29T14:17:36.849Z,66.29
2017-11-29T14:32:34.667Z,68.06
2017-11-29T14:47:37.146Z,70.00
2017-11-29T15:02:37.019Z,70.49
2017-11-29T15:17:36.041Z,71.36
2017-11-29T15:32:35.105Z,71.32
2017-11-29T15:47:34.339Z,71.75
2017-11-29T16:02:37.323Z,71.97
2017-11-29T16:17:35.274Z,72.42
2017-11-29T16:32:38.178Z,73.10
2017-11-29T16:47:35.085Z,73.20
2017-11-29T17:02:34.527Z,73.42
2017-11-29T17:17:34.412Z,73.42
2017-11-29T17:32:33.873Z,74.01
2017-11-29T17:47:37.517Z,74.01
2017-11-29T18:02:34.704Z,73.95
2017-11-29T18:17:35.186Z,74.12
2017-11-29T18:32:35.676Z,74.03
2017-11-29T18:47:35.069Z,73.94
2017-11-29T19:02:37.002Z,73.79
2017-11-29T19:17:38.772Z,73.54
2017-11-29T19:32:34.919Z,73.82
2017-11-29T19:47:35.261Z,73.26
2017-11-29T20:02:37.080Z,73.24
2017-11-29T20:17:35.104Z,73.42
2017-11-29T20:32:36.984Z,73.67
2017-11-29T20:47:34.424Z,74.94
2017-11-29T21:02:34.422Z,74.50
2017-11-29T21:17:34.359Z,75.18
2017-11-29T21:32:35.333Z,75.30
2017-11-29T21:47:36.624Z,74.85
2017-11-29T22:02:34.621Z,74.73
2017-11-29T22:17:34.479Z,75.17
2017-11-29T22:32:34.434Z,74.91
2017-11-29T22:47:36.835Z,76.10
2017-11-29T23:02:35.112Z,76.74
2017-11-29T23:17:34.751Z,76.85
2017-11-29T23:32:34.713Z,76.62
2017-11-29T23:47:37.117Z,75.59
